createdAt,value
2023-01-03T00:01:22.427Z,99835.06
2023-01-03T00:05:24.959Z,99835.47
2023-01-03T00:09:27.197Z,99838.13
2023-01-03T00:13:29.272Z,99832.94
2023-01-03T00:17:31.660Z,99824.50
2023-01-03T00:21:34.279Z,99834.84
2023-01-03T00:25:36.435Z,99836.81
2023-01-03T00:29:39.153Z,99834.16
2023-01-03T00:33:41.317Z,99842.09
2023-01-03T00:37:43.440Z,99842.22
2023-01-03T00:41:45.556Z,99839.72
2023-01-03T00:45:47.685Z,99838.91
2023-01-03T00:49:49.825Z,99843.34
2023-01-03T00:53:55.305Z,99840.63
2023-01-03T00:57:57.409Z,99842.53
2023-01-03T01:01:59.687Z,99841.72
2023-01-03T01:06:30.329Z,99836.84
2023-01-03T01:10:33.100Z,99834.94
2023-01-03T01:14:36.111Z,99838.47
2023-01-03T01:18:39.483Z,99836.50
2023-01-03T01:22:41.625Z,99839.25
2023-01-03T01:26:44.167Z,99825.47
2023-01-03T01:30:46.454Z,99834.09
2023-01-03T01:34:49.292Z,99821.78
2023-01-03T01:39:03.897Z,99819.63
2023-01-03T01:43:45.305Z,99805.97
2023-01-03T01:47:59.976Z,99808.38
2023-01-03T01:52:03.013Z,99812.16
2023-01-03T01:56:10.938Z,99817.47
2023-01-03T02:00:14.383Z,99833.63
2023-01-03T02:04:24.898Z,99837.19
2023-01-03T02:08:27.223Z,99844.25
2023-01-03T02:13:01.494Z,99835.66
2023-01-03T02:17:12.751Z,99860.69
2023-01-03T02:21:19.769Z,99850.59
2023-01-03T02:25:40.565Z,99845.69
2023-01-03T02:30:10.653Z,99830.38
2023-01-03T02:34:29.650Z,99825.19
2023-01-03T02:38:34.842Z,99833.59
2023-01-03T02:42:58.731Z,99828.13
2023-01-03T02:47:07.091Z,99822.88
2023-01-03T02:51:35.341Z,99811.72
2023-01-03T02:55:39.590Z,99816.94
2023-01-03T02:59:54.868Z,99812.34
2023-01-03T03:03:58.773Z,99809.47
2023-01-03T03:08:04.503Z,99822.50
2023-01-03T03:12:27.494Z,99821.91
2023-01-03T03:16:49.296Z,99824.25
2023-01-03T03:21:15.058Z,99815.22
2023-01-03T03:25:34.619Z,99817.91
2023-01-03T03:29:38.140Z,99805.72
2023-01-03T03:34:30.674Z,99806.22
2023-01-03T03:38:40.886Z,99805.91
2023-01-03T03:43:27.251Z,99815.34
2023-01-03T03:47:35.548Z,99815.34
2023-01-03T03:51:41.230Z,99807.94
2023-01-03T03:55:49.810Z,99810.63
2023-01-03T03:59:58.038Z,99817.13
2023-01-03T04:04:06.109Z,99807.53
2023-01-03T04:08:08.790Z,99799.25
2023-01-03T04:12:11.237Z,99801.56
2023-01-03T04:16:15.665Z,99796.19
2023-01-03T04:20:19.357Z,99800.91
2023-01-03T04:24:22.407Z,99803.00
2023-01-03T04:28:32.491Z,99796.53
2023-01-03T04:32:38.125Z,99805.00
2023-01-03T04:36:40.631Z,99810.72
2023-01-03T04:40:43.112Z,99816.03
2023-01-03T04:44:45.722Z,99819.72
2023-01-03T04:48:48.544Z,99819.91
2023-01-03T04:52:50.833Z,99817.97
2023-01-03T04:56:53.296Z,99830.59
2023-01-03T05:01:03.423Z,99824.13
2023-01-03T05:05:10.481Z,99833.50
2023-01-03T05:09:15.728Z,99837.56
2023-01-03T05:13:18.151Z,99833.88
2023-01-03T05:17:21.315Z,99822.00
2023-01-03T05:21:42.083Z,99830.78
2023-01-03T05:25:50.666Z,99827.44
2023-01-03T05:29:54.094Z,99827.19
2023-01-03T05:33:57.113Z,99835.66
2023-01-03T05:37:59.386Z,99839.69
2023-01-03T05:42:01.672Z,99836.38
2023-01-03T05:46:06.216Z,99848.09
2023-01-03T05:50:08.674Z,99845.94
2023-01-03T05:54:18.872Z,99848.25
2023-01-03T05:58:21.988Z,99852.09
2023-01-03T06:02:24.338Z,99852.38
2023-01-03T06:06:26.795Z,99841.88
2023-01-03T06:10:29.816Z,99850.97
2023-01-03T06:19:16.661Z,99859.41
2023-01-03T06:23:18.836Z,99862.19
2023-01-03T06:27:21.058Z,99862.91
2023-01-03T06:31:23.347Z,99867.47
2023-01-03T06:35:25.651Z,99868.41
2023-01-03T06:39:27.855Z,99857.09
2023-01-03T06:43:30.311Z,99853.81
2023-01-03T06:47:51.161Z,99849.91
2023-01-03T06:52:11.845Z,99853.13
2023-01-03T06:56:14.009Z,99846.19
2023-01-03T07:00:16.989Z,99852.41
2023-01-03T07:04:21.057Z,99854.88
2023-01-03T07:08:23.372Z,99861.59
2023-01-03T07:12:44.106Z,99860.53
2023-01-03T07:16:48.220Z,99861.94
2023-01-03T07:20:50.457Z,99860.66
2023-01-03T07:24:52.699Z,99869.69
2023-01-03T07:28:54.905Z,99872.94
2023-01-03T07:32:57.040Z,99881.94
2023-01-03T07:36:59.315Z,99880.72
2023-01-03T07:41:03.153Z,99878.81
2023-01-03T07:45:05.999Z,99892.47
2023-01-03T07:49:11.938Z,99887.53
2023-01-03T07:53:17.090Z,99882.81
2023-01-03T07:57:19.480Z,99877.19
2023-01-03T08:01:23.719Z,99878.25
2023-01-03T08:05:27.579Z,99885.75
2023-01-03T08:09:48.261Z,99877.31
2023-01-03T08:13:50.445Z,99883.25
2023-01-03T08:17:52.866Z,99893.47
2023-01-03T08:21:55.069Z,99888.53
2023-01-03T08:26:11.211Z,99898.63
2023-01-03T08:30:14.610Z,99900.56
2023-01-03T08:34:25.374Z,99907.28
2023-01-03T08:38:39.380Z,99908.59
2023-01-03T08:42:42.590Z,99913.69
2023-01-03T08:46:49.903Z,99919.38
2023-01-03T08:50:52.364Z,99919.25
2023-01-03T08:54:54.541Z,99924.66
2023-01-03T08:58:59.619Z,99930.13
2023-01-03T09:03:01.931Z,99950.44
2023-01-03T09:07:04.361Z,99942.38
2023-01-03T09:11:07.227Z,99942.59
2023-01-03T09:15:09.759Z,99941.75
2023-01-03T09:19:12.032Z,99942.88
2023-01-03T09:23:14.178Z,99945.22
2023-01-03T09:27:16.599Z,99945.91
2023-01-03T09:31:19.035Z,99943.06
2023-01-03T09:35:21.238Z,99938.66
2023-01-03T09:39:23.394Z,99943.25
2023-01-03T09:43:34.923Z,99935.44
2023-01-03T09:47:39.008Z,99924.38
2023-01-03T09:52:04.707Z,99933.19
2023-01-03T09:56:30.199Z,99934.09
2023-01-03T10:01:06.869Z,99928.97
2023-01-03T10:05:17.533Z,99925.69
2023-01-03T10:09:31.713Z,99917.72
2023-01-03T10:14:11.109Z,99906.50
2023-01-03T10:18:16.296Z,99904.34
2023-01-03T10:22:23.201Z,99894.03
2023-01-03T10:26:32.570Z,99891.06
2023-01-03T10:31:08.589Z,99891.88
2023-01-03T10:35:30.184Z,99884.19
2023-01-03T10:39:32.971Z,99886.84
2023-01-03T10:43:46.219Z,99875.34
2023-01-03T10:48:00.651Z,99867.28
2023-01-03T10:52:20.072Z,99860.56
2023-01-03T10:56:24.767Z,99856.53
2023-01-03T11:00:39.447Z,99850.59
2023-01-03T11:04:45.490Z,99848.28
2023-01-03T11:09:01.889Z,99844.22
2023-01-03T11:13:33.632Z,99832.81
2023-01-03T11:17:39.528Z,99830.50
2023-01-03T11:22:04.200Z,99824.19
2023-01-03T11:26:37.686Z,99819.16
2023-01-03T11:31:09.551Z,99815.97
2023-01-03T11:35:45.849Z,99810.41
2023-01-03T11:40:19.012Z,99816.84
2023-01-03T11:44:43.664Z,99810.19
2023-01-03T11:49:06.663Z,99797.88
2023-01-03T11:53:13.921Z,99795.47
2023-01-03T11:57:53.315Z,99798.44
2023-01-03T12:02:41.266Z,99801.13
2023-01-03T12:11:56.072Z,99783.28
2023-01-03T12:16:34.748Z,99781.47
2023-01-03T12:20:44.118Z,99772.34
2023-01-03T12:25:05.047Z,99772.38
2023-01-03T12:29:24.593Z,99767.72
2023-01-03T12:33:40.373Z,99763.72
2023-01-03T12:37:50.633Z,99764.50
2023-01-03T12:42:02.192Z,99762.69
2023-01-03T12:46:25.559Z,99757.47
2023-01-03T12:50:33.977Z,99747.56
2023-01-03T12:55:11.917Z,99747.06
2023-01-03T12:59:39.536Z,99755.69
2023-01-03T13:03:54.646Z,99751.09
2023-01-03T13:08:34.677Z,99744.06
2023-01-03T13:12:42.740Z,99734.38
2023-01-03T13:16:53.617Z,99737.88
2023-01-03T13:20:56.911Z,99730.16
2023-01-03T13:25:36.285Z,99728.03
2023-01-03T13:29:49.620Z,99732.34
2023-01-03T13:33:56.594Z,99732.63
2023-01-03T13:38:20.978Z,99732.03
2023-01-03T13:42:31.565Z,99734.66
2023-01-03T13:46:35.047Z,99733.63
2023-01-03T13:50:39.136Z,99727.47
2023-01-03T13:54:59.388Z,99721.94
2023-01-03T13:59:34.585Z,99722.00
2023-01-03T14:04:01.643Z,99726.81
2023-01-03T14:08:41.097Z,99730.06
2023-01-03T14:13:02.791Z,99728.72
2023-01-03T14:17:15.717Z,99725.41
2023-01-03T14:21:27.951Z,99722.31
2023-01-03T14:25:37.733Z,99734.03
2023-01-03T14:29:43.705Z,99738.06
2023-01-03T14:33:53.141Z,99733.56
2023-01-03T14:38:00.613Z,99737.06
2023-01-03T14:42:14.288Z,99744.63
2023-01-03T14:46:19.394Z,99742.22
2023-01-03T14:50:34.747Z,99743.59
2023-01-03T14:54:39.358Z,99744.41
2023-01-03T14:58:47.497Z,99729.88
2023-01-03T15:02:54.329Z,99736.75
2023-01-03T15:07:11.261Z,99727.31
2023-01-03T15:11:23.871Z,99742.88
2023-01-03T15:15:40.381Z,99744.34
2023-01-03T15:19:54.557Z,99748.03
2023-01-03T15:23:58.995Z,99741.16
2023-01-03T15:28:20.359Z,99745.25
2023-01-03T15:32:24.222Z,99753.88
2023-01-03T15:36:31.077Z,99753.38
2023-01-03T15:40:33.928Z,99765.13
2023-01-03T15:44:36.596Z,99766.50
2023-01-03T15:48:39.830Z,99758.63
2023-01-03T15:52:42.449Z,99760.31
2023-01-03T15:57:01.480Z,99758.91
2023-01-03T16:01:04.925Z,99761.69
2023-01-03T16:05:19.564Z,99761.94
2023-01-03T16:09:24.369Z,99766.97
2023-01-03T16:13:29.564Z,99772.81
2023-01-03T16:17:34.143Z,99765.41
2023-01-03T16:21:36.733Z,99769.41
2023-01-03T16:25:42.429Z,99776.59
2023-01-03T16:29:45.027Z,99765.75
2023-01-03T16:33:52.022Z,99772.22
2023-01-03T16:37:54.557Z,99775.97
2023-01-03T16:42:15.433Z,99775.31
2023-01-03T16:46:21.304Z,99779.66
2023-01-03T16:50:24.022Z,99787.44
2023-01-03T16:54:27.385Z,99800.72
2023-01-03T16:58:31.227Z,99801.03
2023-01-03T17:02:33.894Z,99802.41
2023-01-03T17:06:38.637Z,99805.16
2023-01-03T17:10:42.289Z,99813.50
2023-01-03T17:14:46.475Z,99821.34
2023-01-03T17:18:49.319Z,99824.41
2023-01-03T17:22:58.094Z,99824.34
2023-01-03T17:27:04.790Z,99826.94
2023-01-03T17:31:09.798Z,99820.47
2023-01-03T17:35:14.300Z,99822.81
2023-01-03T17:39:16.701Z,99826.84
2023-01-03T17:43:22.476Z,99826.38
